createdAt,value
2022-11-30T00:01:18.086Z,94.54
2022-11-30T00:03:56.270Z,94.58
2022-11-30T00:06:32.606Z,94.56
2022-11-30T00:09:04.941Z,94.77
2022-11-30T00:11:37.104Z,94.85
2022-11-30T00:14:11.684Z,94.72
2022-11-30T00:16:45.304Z,95.02
2022-11-30T00:19:17.635Z,94.74
2022-11-30T00:21:50.051Z,94.75
2022-11-30T00:24:22.169Z,94.57
2022-11-30T00:26:54.320Z,94.62
2022-11-30T00:29:26.586Z,94.75
2022-11-30T00:32:01.768Z,94.64
2022-11-30T00:34:35.295Z,94.81
2022-11-30T00:37:07.809Z,94.91
2022-11-30T00:39:39.994Z,94.89
2022-11-30T00:42:12.240Z,94.92
2022-11-30T00:44:47.889Z,95.16
2022-11-30T00:47:23.616Z,94.83
2022-11-30T00:49:59.670Z,95.00
2022-11-30T00:52:32.780Z,95.04
2022-11-30T00:55:07.277Z,94.67
2022-11-30T00:57:39.468Z,94.86
2022-11-30T01:00:13.544Z,94.90
2022-11-30T01:02:46.449Z,95.02
2022-11-30T01:05:18.677Z,94.91
2022-11-30T01:07:51.098Z,94.83
2022-11-30T01:10:24.106Z,95.05
2022-11-30T01:12:58.817Z,95.03
2022-11-30T01:15:31.528Z,95.02
2022-11-30T01:18:03.997Z,94.96
2022-11-30T01:20:36.620Z,95.04
2022-11-30T01:23:12.706Z,94.91
2022-11-30T01:25:56.213Z,95.05
2022-11-30T01:28:28.785Z,94.97
2022-11-30T01:31:06.407Z,95.16
2022-11-30T01:33:39.863Z,95.10
2022-11-30T01:36:17.202Z,95.13
2022-11-30T01:38:52.417Z,95.08
2022-11-30T01:41:26.670Z,94.94
2022-11-30T01:44:26.466Z,95.12
2022-11-30T01:47:02.213Z,94.95
2022-11-30T01:49:38.703Z,95.01
2022-11-30T01:52:16.936Z,95.08
2022-11-30T01:54:56.005Z,95.07
2022-11-30T01:57:32.659Z,94.85
2022-11-30T02:00:10.816Z,94.71
2022-11-30T02:02:58.891Z,94.65
2022-11-30T02:05:32.721Z,94.74
2022-11-30T02:08:05.631Z,94.98
2022-11-30T02:10:46.618Z,95.01
2022-11-30T02:13:35.259Z,95.05
2022-11-30T02:16:15.837Z,95.10
2022-11-30T02:18:57.413Z,95.16
2022-11-30T02:21:41.809Z,95.03
2022-11-30T02:24:35.066Z,94.97
2022-11-30T02:27:16.373Z,94.97
2022-11-30T02:29:50.913Z,94.84
2022-11-30T02:32:28.212Z,94.79
2022-11-30T02:35:04.533Z,95.14
2022-11-30T02:37:40.899Z,95.23
2022-11-30T02:40:20.896Z,95.44
2022-11-30T02:42:56.977Z,95.39
2022-11-30T02:45:36.073Z,95.37
2022-11-30T02:48:16.500Z,95.17
2022-11-30T02:50:52.650Z,95.62
2022-11-30T02:53:26.587Z,95.58
2022-11-30T02:55:58.917Z,95.59
2022-11-30T02:58:31.178Z,95.49
2022-11-30T03:01:03.443Z,95.52
2022-11-30T03:03:35.798Z,95.64
2022-11-30T03:06:08.397Z,95.57
2022-11-30T03:08:40.716Z,95.46
2022-11-30T03:11:15.697Z,95.63
2022-11-30T03:13:47.870Z,95.60
2022-11-30T03:16:20.423Z,95.46
2022-11-30T03:18:52.636Z,95.36
2022-11-30T03:21:27.615Z,95.55
2022-11-30T03:23:59.957Z,95.62
2022-11-30T03:26:34.688Z,95.56
2022-11-30T03:29:06.942Z,95.55
2022-11-30T03:31:39.063Z,95.51
2022-11-30T03:34:11.348Z,95.39
2022-11-30T03:36:43.573Z,95.37
2022-11-30T03:39:15.726Z,95.49
2022-11-30T03:41:48.204Z,95.48
2022-11-30T03:44:20.469Z,95.62
2022-11-30T03:46:52.724Z,95.63
2022-11-30T03:49:29.690Z,95.62
2022-11-30T03:52:01.901Z,95.58
2022-11-30T03:54:40.478Z,95.35
2022-11-30T03:57:13.030Z,95.39
2022-11-30T03:59:45.198Z,95.44
2022-11-30T04:02:17.379Z,95.27
2022-11-30T04:04:49.811Z,95.47
2022-11-30T04:07:22.242Z,95.46
2022-11-30T04:09:56.976Z,95.52
2022-11-30T04:12:32.039Z,95.49
2022-11-30T04:15:04.632Z,95.46
2022-11-30T04:17:36.848Z,95.58
2022-11-30T04:20:12.642Z,95.63
2022-11-30T04:22:45.880Z,95.70
2022-11-30T04:25:18.187Z,95.70
2022-11-30T04:27:53.341Z,95.81
2022-11-30T04:30:25.590Z,95.85
2022-11-30T04:32:57.844Z,95.87
2022-11-30T04:35:30.344Z,95.88
2022-11-30T04:38:03.103Z,95.70
2022-11-30T04:40:35.737Z,95.71
2022-11-30T04:43:08.054Z,95.75
2022-11-30T04:45:40.914Z,96.04
2022-11-30T04:48:13.350Z,95.93
2022-11-30T04:50:45.990Z,95.84
2022-11-30T04:53:18.330Z,95.89
2022-11-30T04:55:50.783Z,96.04
2022-11-30T04:58:24.163Z,96.03
2022-11-30T05:00:57.571Z,95.97
2022-11-30T05:03:30.124Z,96.02
2022-11-30T05:06:18.521Z,95.95
2022-11-30T05:08:50.660Z,95.95
2022-11-30T05:11:22.889Z,96.04
2022-11-30T05:13:55.057Z,95.85
2022-11-30T05:16:27.288Z,95.97
2022-11-30T05:18:59.731Z,96.08
2022-11-30T05:21:32.207Z,96.09
2022-11-30T05:24:04.561Z,96.10
2022-11-30T05:26:37.946Z,95.96
2022-11-30T05:29:10.156Z,95.97
2022-11-30T05:31:42.418Z,96.00
2022-11-30T05:34:14.682Z,96.12
2022-11-30T05:36:47.199Z,96.08
2022-11-30T05:39:19.360Z,96.03
2022-11-30T05:41:51.612Z,95.92
2022-11-30T05:44:23.828Z,96.03
2022-11-30T05:46:56.134Z,96.12
2022-11-30T05:49:28.482Z,96.18
2022-11-30T05:52:51.939Z,96.06
